sensor_id;sensor_type;location;lat;lon;timestamp;P1;durP1;ratioP1;P2;durP2;ratioP2
69736;SDS011;64476;55.004;73.342;2023-02-24T00:00:17;13.40;;;9.45;;
69736;SDS011;64476;55.004;73.342;2023-02-24T00:03:38;11.38;;;8.68;;
69736;SDS011;64476;55.004;73.342;2023-02-24T00:06:47;8.88;;;7.85;;
69736;SDS011;64476;55.004;73.342;2023-02-24T00:09:51;7.57;;;6.68;;
69736;SDS011;64476;55.004;73.342;2023-02-24T00:12:53;7.38;;;6.60;;
69736;SDS011;64476;55.004;73.342;2023-02-24T00:16:03;9.20;;;6.68;;
69736;SDS011;64476;55.004;73.342;2023-02-24T00:19:06;9.50;;;7.53;;
69736;SDS011;64476;55.004;73.342;2023-02-24T00:22:07;10.02;;;7.75;;
69736;SDS011;64476;55.004;73.342;2023-02-24T00:25:12;9.57;;;7.65;;
69736;SDS011;64476;55.004;73.342;2023-02-24T00:28:14;11.02;;;8.00;;
69736;SDS011;64476;55.004;73.342;2023-02-24T00:31:26;11.45;;;9.52;;
69736;SDS011;64476;55.004;73.342;2023-02-24T00:34:32;19.67;;;11.18;;
69736;SDS011;64476;55.004;73.342;2023-02-24T00:37:36;19.13;;;11.93;;
69736;SDS011;64476;55.004;73.342;2023-02-24T00:40:48;23.30;;;12.80;;
69736;SDS011;64476;55.004;73.342;2023-02-24T00:43:50;18.63;;;11.63;;
69736;SDS011;64476;55.004;73.342;2023-02-24T00:46:53;18.00;;;11.80;;
69736;SDS011;64476;55.004;73.342;2023-02-24T00:49:55;19.13;;;10.90;;
69736;SDS011;64476;55.004;73.342;2023-02-24T00:52:56;13.02;;;8.88;;
69736;SDS011;64476;55.004;73.342;2023-02-24T00:56:00;18.95;;;11.45;;
69736;SDS011;64476;55.004;73.342;2023-02-24T00:59:08;18.13;;;11.20;;
69736;SDS011;64476;55.004;73.342;2023-02-24T01:02:11;17.48;;;11.70;;
69736;SDS011;64476;55.004;73.342;2023-02-24T01:05:18;19.95;;;11.90;;
69736;SDS011;64476;55.004;73.342;2023-02-24T01:08:20;20.17;;;11.57;;
69736;SDS011;64476;55.004;73.342;2023-02-24T01:11:34;13.57;;;10.38;;
69736;SDS011;64476;55.004;73.342;2023-02-24T01:14:54;15.65;;;10.50;;
69736;SDS011;64476;55.004;73.342;2023-02-24T01:17:56;14.32;;;11.10;;
69736;SDS011;64476;55.004;73.342;2023-02-24T01:21:08;17.45;;;11.50;;
69736;SDS011;64476;55.004;73.342;2023-02-24T01:24:12;16.25;;;11.27;;
69736;SDS011;64476;55.004;73.342;2023-02-24T01:30:59;19.75;;;11.82;;
69736;SDS011;64476;55.004;73.342;2023-02-24T01:34:06;16.40;;;11.68;;
69736;SDS011;64476;55.004;73.342;2023-02-24T01:37:11;18.05;;;11.25;;
69736;SDS011;64476;55.004;73.342;2023-02-24T01:40:26;18.23;;;12.20;;
69736;SDS011;64476;55.004;73.342;2023-02-24T01:43:28;17.85;;;11.88;;
69736;SDS011;64476;55.004;73.342;2023-02-24T01:46:31;19.75;;;12.77;;
69736;SDS011;64476;55.004;73.342;2023-02-24T01:49:35;18.10;;;11.85;;
69736;SDS011;64476;55.004;73.342;2023-02-24T01:52:41;20.40;;;13.55;;
69736;SDS011;64476;55.004;73.342;2023-02-24T01:55:56;22.10;;;13.25;;
69736;SDS011;64476;55.004;73.342;2023-02-24T01:58:58;23.55;;;13.98;;
69736;SDS011;64476;55.004;73.342;2023-02-24T02:02:09;18.35;;;11.80;;
69736;SDS011;64476;55.004;73.342;2023-02-24T02:05:11;19.25;;;13.00;;
69736;SDS011;64476;55.004;73.342;2023-02-24T02:08:15;22.08;;;15.07;;
69736;SDS011;64476;55.004;73.342;2023-02-24T02:11:18;25.00;;;16.88;;
69736;SDS011;64476;55.004;73.342;2023-02-24T02:14:20;34.85;;;18.25;;
69736;SDS011;64476;55.004;73.342;2023-02-24T02:20:37;34.58;;;19.98;;
69736;SDS011;64476;55.004;73.342;2023-02-24T02:23:57;37.45;;;21.90;;
69736;SDS011;64476;55.004;73.342;2023-02-24T02:37:57;36.80;;;20.83;;
69736;SDS011;64476;55.004;73.342;2023-02-24T02:48:23;34.72;;;16.83;;
69736;SDS011;64476;55.004;73.342;2023-02-24T02:51:50;33.92;;;18.62;;
69736;SDS011;64476;55.004;73.342;2023-02-24T02:54:55;49.58;;;21.85;;
69736;SDS011;64476;55.004;73.342;2023-02-24T02:58:31;38.05;;;20.20;;
69736;SDS011;64476;55.004;73.342;2023-02-24T03:01:49;42.96;;;21.09;;
69736;SDS011;64476;55.004;73.342;2023-02-24T03:04:57;39.88;;;21.45;;
69736;SDS011;64476;55.004;73.342;2023-02-24T03:08:57;42.42;;;22.70;;
69736;SDS011;64476;55.004;73.342;2023-02-24T03:12:30;45.70;;;25.27;;
69736;SDS011;64476;55.004;73.342;2023-02-24T03:15:43;42.88;;;24.67;;
69736;SDS011;64476;55.004;73.342;2023-02-24T03:18:49;42.80;;;22.35;;
69736;SDS011;64476;55.004;73.342;2023-02-24T03:22:06;37.95;;;21.90;;
69736;SDS011;64476;55.004;73.342;2023-02-24T03:25:25;33.85;;;20.48;;
69736;SDS011;64476;55.004;73.342;2023-02-24T03:32:21;34.83;;;17.25;;
69736;SDS011;64476;55.004;73.342;2023-02-24T03:35:40;29.23;;;15.27;;
69736;SDS011;64476;55.004;73.342;2023-02-24T03:38:46;29.15;;;16.10;;
69736;SDS011;64476;55.004;73.342;2023-02-24T03:41:53;30.03;;;17.73;;
69736;SDS011;64476;55.004;73.342;2023-02-24T03:45:07;29.48;;;16.63;;
69736;SDS011;64476;55.004;73.342;2023-02-24T03:48:10;25.23;;;15.35;;
69736;SDS011;64476;55.004;73.342;2023-02-24T03:51:15;28.27;;;16.33;;
69736;SDS011;64476;55.004;73.342;2023-02-24T03:57:54;37.33;;;14.68;;
69736;SDS011;64476;55.004;73.342;2023-02-24T04:01:14;20.38;;;11.85;;
69736;SDS011;64476;55.004;73.342;2023-02-24T04:04:36;22.67;;;12.77;;
69736;SDS011;64476;55.004;73.342;2023-02-24T04:08:06;19.42;;;11.98;;
69736;SDS011;64476;55.004;73.342;2023-02-24T04:11:21;19.85;;;11.60;;
69736;SDS011;64476;55.004;73.342;2023-02-24T04:14:32;18.65;;;11.75;;
69736;SDS011;64476;55.004;73.342;2023-02-24T04:17:45;18.80;;;11.87;;
69736;SDS011;64476;55.004;73.342;2023-02-24T04:20:58;18.83;;;11.10;;
69736;SDS011;64476;55.004;73.342;2023-02-24T04:24:03;18.65;;;10.80;;
69736;SDS011;64476;55.004;73.342;2023-02-24T04:27:13;18.33;;;10.88;;
69736;SDS011;64476;55.004;73.342;2023-02-24T04:30:27;22.88;;;11.70;;
69736;SDS011;64476;55.004;73.342;2023-02-24T04:33:35;17.83;;;11.88;;
69736;SDS011;64476;55.004;73.342;2023-02-24T04:36:43;17.48;;;10.82;;
69736;SDS011;64476;55.004;73.342;2023-02-24T04:39:50;13.48;;;9.90;;
69736;SDS011;64476;55.004;73.342;2023-02-24T04:43:03;20.90;;;10.02;;
69736;SDS011;64476;55.004;73.342;2023-02-24T04:46:04;16.95;;;9.52;;
69736;SDS011;64476;55.004;73.342;2023-02-24T04:49:18;13.20;;;9.38;;
69736;SDS011;64476;55.004;73.342;2023-02-24T04:52:20;15.63;;;10.70;;
69736;SDS011;64476;55.004;73.342;2023-02-24T04:55:34;11.98;;;8.63;;
69736;SDS011;64476;55.004;73.342;2023-02-24T04:58:40;11.40;;;9.50;;
69736;SDS011;64476;55.004;73.342;2023-02-24T05:01:56;11.57;;;9.05;;
69736;SDS011;64476;55.004;73.342;2023-02-24T05:05:01;15.23;;;8.82;;
69736;SDS011;64476;55.004;73.342;2023-02-24T05:08:18;23.13;;;14.02;;
69736;SDS011;64476;55.004;73.342;2023-02-24T05:11:20;14.48;;;9.68;;
69736;SDS011;64476;55.004;73.342;2023-02-24T05:14:21;28.80;;;9.38;;
69736;SDS011;64476;55.004;73.342;2023-02-24T05:17:35;14.50;;;9.93;;
69736;SDS011;64476;55.004;73.342;2023-02-24T05:20:48;16.48;;;10.23;;
69736;SDS011;64476;55.004;73.342;2023-02-24T05:24:10;19.33;;;11.15;;
69736;SDS011;64476;55.004;73.342;2023-02-24T05:27:11;55.75;;;12.77;;
69736;SDS011;64476;55.004;73.342;2023-02-24T05:30:20;19.23;;;11.02;;
69736;SDS011;64476;55.004;73.342;2023-02-24T05:33:32;24.35;;;12.98;;
69736;SDS011;64476;55.004;73.342;2023-02-24T05:36:42;19.29;;;12.48;;
69736;SDS011;64476;55.004;73.342;2023-02-24T05:39:45;19.08;;;12.65;;
69736;SDS011;64476;55.004;73.342;2023-02-24T05:42:49;18.67;;;12.32;;
69736;SDS011;64476;55.004;73.342;2023-02-24T05:45:51;19.30;;;12.63;;
69736;SDS011;64476;55.004;73.342;2023-02-24T05:48:55;18.57;;;11.80;;
69736;SDS011;64476;55.004;73.342;2023-02-24T05:51:59;18.20;;;10.52;;
69736;SDS011;64476;55.004;73.342;2023-02-24T05:55:37;21.25;;;10.38;;
69736;SDS011;64476;55.004;73.342;2023-02-24T05:58:39;18.95;;;10.95;;
69736;SDS011;64476;55.004;73.342;2023-02-24T06:01:43;16.80;;;12.18;;
69736;SDS011;64476;55.004;73.342;2023-02-24T06:04:52;14.43;;;10.25;;
69736;SDS011;64476;55.004;73.342;2023-02-24T06:07:56;15.93;;;11.30;;
69736;SDS011;64476;55.004;73.342;2023-02-24T06:11:05;19.55;;;11.63;;
69736;SDS011;64476;55.004;73.342;2023-02-24T06:14:09;13.57;;;10.97;;
69736;SDS011;64476;55.004;73.342;2023-02-24T06:17:14;14.77;;;10.90;;
69736;SDS011;64476;55.004;73.342;2023-02-24T06:20:17;16.70;;;8.90;;
69736;SDS011;64476;55.004;73.342;2023-02-24T06:23:18;14.23;;;10.10;;
69736;SDS011;64476;55.004;73.342;2023-02-24T06:26:20;19.00;;;11.40;;
69736;SDS011;64476;55.004;73.342;2023-02-24T06:29:22;15.52;;;10.82;;
69736;SDS011;64476;55.004;73.342;2023-02-24T06:32:29;15.57;;;11.40;;
69736;SDS011;64476;55.004;73.342;2023-02-24T06:35:31;16.10;;;10.70;;
69736;SDS011;64476;55.004;73.342;2023-02-24T06:38:33;15.32;;;11.40;;
69736;SDS011;64476;55.004;73.342;2023-02-24T06:41:43;17.75;;;10.85;;
69736;SDS011;64476;55.004;73.342;2023-02-24T06:44:45;18.02;;;12.32;;
69736;SDS011;64476;55.004;73.342;2023-02-24T06:47:47;17.87;;;12.73;;
69736;SDS011;64476;55.004;73.342;2023-02-24T06:51:03;25.45;;;10.38;;
69736;SDS011;64476;55.004;73.342;2023-02-24T06:54:16;19.85;;;12.15;;
69736;SDS011;64476;55.004;73.342;2023-02-24T06:57:19;19.42;;;12.40;;
69736;SDS011;64476;55.004;73.342;2023-02-24T07:00:20;21.40;;;11.88;;
69736;SDS011;64476;55.004;73.342;2023-02-24T07:03:27;18.83;;;11.10;;
69736;SDS011;64476;55.004;73.342;2023-02-24T07:06:53;18.17;;;12.93;;
69736;SDS011;64476;55.004;73.342;2023-02-24T07:09:56;19.75;;;11.95;;
69736;SDS011;64476;55.004;73.342;2023-02-24T07:12:57;21.60;;;13.25;;
69736;SDS011;64476;55.004;73.342;2023-02-24T07:16:03;16.50;;;11.40;;
69736;SDS011;64476;55.004;73.342;2023-02-24T07:19:17;21.97;;;13.53;;
69736;SDS011;64476;55.004;73.342;2023-02-24T07:22:20;22.08;;;13.35;;
69736;SDS011;64476;55.004;73.342;2023-02-24T07:25:26;22.55;;;13.38;;
69736;SDS011;64476;55.004;73.342;2023-02-24T07:28:38;25.90;;;12.73;;
69736;SDS011;64476;55.004;73.342;2023-02-24T07:31:43;20.88;;;12.57;;
69736;SDS011;64476;55.004;73.342;2023-02-24T07:34:49;21.10;;;13.63;;
69736;SDS011;64476;55.004;73.342;2023-02-24T07:37:56;23.10;;;13.10;;
69736;SDS011;64476;55.004;73.342;2023-02-24T07:41:12;23.02;;;13.50;;
69736;SDS011;64476;55.004;73.342;2023-02-24T07:44:29;24.02;;;14.15;;
69736;SDS011;64476;55.004;73.342;2023-02-24T07:47:31;19.65;;;12.63;;
69736;SDS011;64476;55.004;73.342;2023-02-24T07:50:43;21.30;;;14.13;;
69736;SDS011;64476;55.004;73.342;2023-02-24T07:53:47;23.73;;;14.27;;
69736;SDS011;64476;55.004;73.342;2023-02-24T07:56:50;41.85;;;13.63;;
69736;SDS011;64476;55.004;73.342;2023-02-24T08:00:15;23.25;;;13.93;;
69736;SDS011;64476;55.004;73.342;2023-02-24T08:03:25;21.17;;;13.68;;
69736;SDS011;64476;55.004;73.342;2023-02-24T08:06:43;19.10;;;12.74;;
69736;SDS011;64476;55.004;73.342;2023-02-24T08:09:48;22.42;;;12.25;;
69736;SDS011;64476;55.004;73.342;2023-02-24T08:13:16;27.63;;;14.68;;
69736;SDS011;64476;55.004;73.342;2023-02-24T08:16:24;25.73;;;14.48;;
69736;SDS011;64476;55.004;73.342;2023-02-24T08:19:42;21.73;;;13.77;;
69736;SDS011;64476;55.004;73.342;2023-02-24T08:22:44;28.92;;;15.57;;
69736;SDS011;64476;55.004;73.342;2023-02-24T08:25:46;28.00;;;16.48;;
69736;SDS011;64476;55.004;73.342;2023-02-24T08:28:48;30.67;;;16.77;;
69736;SDS011;64476;55.004;73.342;2023-02-24T08:31:51;30.00;;;16.57;;
69736;SDS011;64476;55.004;73.342;2023-02-24T08:34:53;30.02;;;16.85;;
69736;SDS011;64476;55.004;73.342;2023-02-24T08:38:07;26.83;;;17.10;;
69736;SDS011;64476;55.004;73.342;2023-02-24T08:41:17;25.60;;;15.57;;
69736;SDS011;64476;55.004;73.342;2023-02-24T08:44:29;25.80;;;16.63;;
69736;SDS011;64476;55.004;73.342;2023-02-24T08:47:31;32.65;;;17.88;;
69736;SDS011;64476;55.004;73.342;2023-02-24T08:50:37;34.15;;;18.30;;
69736;SDS011;64476;55.004;73.342;2023-02-24T08:53:39;30.07;;;17.07;;
69736;SDS011;64476;55.004;73.342;2023-02-24T08:56:43;36.15;;;17.08;;
69736;SDS011;64476;55.004;73.342;2023-02-24T09:00:11;27.67;;;15.27;;
69736;SDS011;64476;55.004;73.342;2023-02-24T09:03:37;42.65;;;15.18;;
69736;SDS011;64476;55.004;73.342;2023-02-24T09:06:47;19.98;;;13.37;;
69736;SDS011;64476;55.004;73.342;2023-02-24T09:09:50;42.10;;;16.45;;
69736;SDS011;64476;55.004;73.342;2023-02-24T09:13:05;25.20;;;15.65;;
69736;SDS011;64476;55.004;73.342;2023-02-24T09:16:13;26.23;;;15.27;;
69736;SDS011;64476;55.004;73.342;2023-02-24T09:19:19;21.38;;;14.65;;
69736;SDS011;64476;55.004;73.342;2023-02-24T09:22:40;26.70;;;16.07;;
69736;SDS011;64476;55.004;73.342;2023-02-24T09:29:43;24.83;;;14.75;;
69736;SDS011;64476;55.004;73.342;2023-02-24T09:33:04;26.73;;;16.33;;
69736;SDS011;64476;55.004;73.342;2023-02-24T09:36:27;25.63;;;15.68;;
69736;SDS011;64476;55.004;73.342;2023-02-24T09:39:39;27.83;;;16.48;;
69736;SDS011;64476;55.004;73.342;2023-02-24T09:42:57;24.77;;;16.27;;
69736;SDS011;64476;55.004;73.342;2023-02-24T09:46:09;27.33;;;14.38;;
69736;SDS011;64476;55.004;73.342;2023-02-24T09:49:15;25.23;;;16.58;;
69736;SDS011;64476;55.004;73.342;2023-02-24T09:56:50;26.87;;;16.08;;
69736;SDS011;64476;55.004;73.342;2023-02-24T10:00:08;26.77;;;16.50;;
69736;SDS011;64476;55.004;73.342;2023-02-24T10:07:09;28.38;;;17.05;;
69736;SDS011;64476;55.004;73.342;2023-02-24T10:10:17;24.92;;;15.90;;
69736;SDS011;64476;55.004;73.342;2023-02-24T10:13:27;35.23;;;16.67;;
69736;SDS011;64476;55.004;73.342;2023-02-24T10:16:42;28.17;;;15.55;;
69736;SDS011;64476;55.004;73.342;2023-02-24T10:19:46;25.90;;;15.32;;
69736;SDS011;64476;55.004;73.342;2023-02-24T10:23:02;36.28;;;18.80;;
69736;SDS011;64476;55.004;73.342;2023-02-24T10:33:58;24.48;;;13.88;;
69736;SDS011;64476;55.004;73.342;2023-02-24T10:37:12;30.77;;;16.25;;
69736;SDS011;64476;55.004;73.342;2023-02-24T10:40:24;30.42;;;16.80;;
69736;SDS011;64476;55.004;73.342;2023-02-24T10:44:20;28.55;;;17.08;;
69736;SDS011;64476;55.004;73.342;2023-02-24T10:51:33;30.90;;;17.35;;
69736;SDS011;64476;55.004;73.342;2023-02-24T10:54:38;33.78;;;18.65;;
69736;SDS011;64476;55.004;73.342;2023-02-24T10:58:05;24.50;;;13.40;;
69736;SDS011;64476;55.004;73.342;2023-02-24T11:01:18;39.03;;;18.52;;
69736;SDS011;64476;55.004;73.342;2023-02-24T11:04:43;28.40;;;16.00;;
69736;SDS011;64476;55.004;73.342;2023-02-24T11:08:15;24.42;;;15.68;;
69736;SDS011;64476;55.004;73.342;2023-02-24T11:11:59;31.13;;;17.15;;
69736;SDS011;64476;55.004;73.342;2023-02-24T11:15:52;31.55;;;16.23;;
69736;SDS011;64476;55.004;73.342;2023-02-24T11:19:59;33.38;;;18.00;;
69736;SDS011;64476;55.004;73.342;2023-02-24T11:26:42;30.30;;;17.72;;
69736;SDS011;64476;55.004;73.342;2023-02-24T11:40:20;23.08;;;14.38;;
69736;SDS011;64476;55.004;73.342;2023-02-24T11:43:25;26.42;;;15.27;;
69736;SDS011;64476;55.004;73.342;2023-02-24T11:47:02;27.30;;;17.15;;
69736;SDS011;64476;55.004;73.342;2023-02-24T11:56:57;28.65;;;17.33;;
69736;SDS011;64476;55.004;73.342;2023-02-24T12:00:16;27.92;;;16.00;;
69736;SDS011;64476;55.004;73.342;2023-02-24T12:03:40;31.55;;;17.60;;
69736;SDS011;64476;55.004;73.342;2023-02-24T12:10:30;27.95;;;17.55;;
69736;SDS011;64476;55.004;73.342;2023-02-24T12:13:49;30.95;;;16.65;;
69736;SDS011;64476;55.004;73.342;2023-02-24T12:20:47;28.98;;;15.98;;
69736;SDS011;64476;55.004;73.342;2023-02-24T12:23:57;27.90;;;15.75;;
69736;SDS011;64476;55.004;73.342;2023-02-24T12:27:02;29.98;;;16.35;;
69736;SDS011;64476;55.004;73.342;2023-02-24T12:34:26;33.47;;;19.20;;
69736;SDS011;64476;55.004;73.342;2023-02-24T12:44:32;29.40;;;16.17;;
69736;SDS011;64476;55.004;73.342;2023-02-24T12:51:16;34.15;;;19.65;;
69736;SDS011;64476;55.004;73.342;2023-02-24T12:54:28;29.97;;;14.37;;
69736;SDS011;64476;55.004;73.342;2023-02-24T13:04:32;38.42;;;19.02;;
69736;SDS011;64476;55.004;73.342;2023-02-24T13:08:49;33.50;;;15.27;;
69736;SDS011;64476;55.004;73.342;2023-02-24T13:15:22;24.77;;;15.32;;
69736;SDS011;64476;55.004;73.342;2023-02-24T13:18:35;52.08;;;18.20;;
69736;SDS011;64476;55.004;73.342;2023-02-24T13:21:39;31.50;;;17.77;;
69736;SDS011;64476;55.004;73.342;2023-02-24T13:24:42;25.10;;;16.63;;
69736;SDS011;64476;55.004;73.342;2023-02-24T13:27:57;32.90;;;18.17;;
69736;SDS011;64476;55.004;73.342;2023-02-24T13:31:10;34.17;;;18.77;;
69736;SDS011;64476;55.004;73.342;2023-02-24T13:34:26;34.50;;;16.13;;
69736;SDS011;64476;55.004;73.342;2023-02-24T13:38:07;46.90;;;19.52;;
69736;SDS011;64476;55.004;73.342;2023-02-24T13:52:58;30.52;;;17.63;;
69736;SDS011;64476;55.004;73.342;2023-02-24T14:02:42;35.80;;;18.23;;
69736;SDS011;64476;55.004;73.342;2023-02-24T14:05:44;52.08;;;19.30;;
69736;SDS011;64476;55.004;73.342;2023-02-24T14:08:50;38.78;;;18.73;;
69736;SDS011;64476;55.004;73.342;2023-02-24T14:12:02;39.33;;;18.88;;
69736;SDS011;64476;55.004;73.342;2023-02-24T14:15:11;29.42;;;16.35;;
69736;SDS011;64476;55.004;73.342;2023-02-24T14:18:55;35.38;;;17.83;;
69736;SDS011;64476;55.004;73.342;2023-02-24T14:22:02;40.35;;;19.60;;
69736;SDS011;64476;55.004;73.342;2023-02-24T14:25:04;38.55;;;20.17;;
69736;SDS011;64476;55.004;73.342;2023-02-24T14:28:20;33.31;;;19.36;;
69736;SDS011;64476;55.004;73.342;2023-02-24T14:31:35;36.58;;;19.65;;
69736;SDS011;64476;55.004;73.342;2023-02-24T14:34:44;33.47;;;17.63;;
69736;SDS011;64476;55.004;73.342;2023-02-24T14:37:48;29.58;;;17.02;;
69736;SDS011;64476;55.004;73.342;2023-02-24T14:40:49;33.50;;;18.45;;
69736;SDS011;64476;55.004;73.342;2023-02-24T14:43:51;25.98;;;15.77;;
69736;SDS011;64476;55.004;73.342;2023-02-24T14:47:00;34.03;;;15.60;;
69736;SDS011;64476;55.004;73.342;2023-02-24T14:50:06;28.98;;;14.45;;
69736;SDS011;64476;55.004;73.342;2023-02-24T14:53:17;26.35;;;13.93;;
69736;SDS011;64476;55.004;73.342;2023-02-24T14:56:24;27.98;;;15.23;;
69736;SDS011;64476;55.004;73.342;2023-02-24T14:59:41;28.70;;;15.52;;
69736;SDS011;64476;55.004;73.342;2023-02-24T15:02:47;27.77;;;14.07;;
69736;SDS011;64476;55.004;73.342;2023-02-24T15:06:23;25.60;;;15.20;;
69736;SDS011;64476;55.004;73.342;2023-02-24T15:09:40;38.13;;;15.05;;
69736;SDS011;64476;55.004;73.342;2023-02-24T15:12:48;36.13;;;14.65;;
69736;SDS011;64476;55.004;73.342;2023-02-24T15:19:47;28.35;;;14.55;;
69736;SDS011;64476;55.004;73.342;2023-02-24T15:23:00;22.60;;;13.98;;
69736;SDS011;64476;55.004;73.342;2023-02-24T15:26:06;23.92;;;14.35;;
69736;SDS011;64476;55.004;73.342;2023-02-24T15:29:11;27.15;;;13.60;;
69736;SDS011;64476;55.004;73.342;2023-02-24T15:32:38;36.95;;;13.93;;
69736;SDS011;64476;55.004;73.342;2023-02-24T15:35:45;33.97;;;15.07;;
69736;SDS011;64476;55.004;73.342;2023-02-24T15:38:53;27.95;;;14.18;;
69736;SDS011;64476;55.004;73.342;2023-02-24T15:42:28;21.70;;;12.32;;
69736;SDS011;64476;55.004;73.342;2023-02-24T15:45:34;25.65;;;14.95;;
69736;SDS011;64476;55.004;73.342;2023-02-24T15:48:48;25.40;;;13.32;;
69736;SDS011;64476;55.004;73.342;2023-02-24T15:51:56;22.38;;;13.80;;
69736;SDS011;64476;55.004;73.342;2023-02-24T15:55:01;27.27;;;15.57;;
69736;SDS011;64476;55.004;73.342;2023-02-24T15:58:19;44.45;;;13.10;;
69736;SDS011;64476;55.004;73.342;2023-02-24T16:01:23;35.38;;;14.15;;
69736;SDS011;64476;55.004;73.342;2023-02-24T16:04:31;31.30;;;14.57;;
69736;SDS011;64476;55.004;73.342;2023-02-24T16:07:45;22.10;;;14.05;;
69736;SDS011;64476;55.004;73.342;2023-02-24T16:11:24;23.80;;;13.25;;
69736;SDS011;64476;55.004;73.342;2023-02-24T16:14:38;26.85;;;13.55;;
69736;SDS011;64476;55.004;73.342;2023-02-24T16:17:41;23.77;;;12.48;;
69736;SDS011;64476;55.004;73.342;2023-02-24T16:24:22;22.67;;;13.40;;
69736;SDS011;64476;55.004;73.342;2023-02-24T16:27:23;30.92;;;14.10;;
69736;SDS011;64476;55.004;73.342;2023-02-24T16:30:37;30.80;;;14.13;;
69736;SDS011;64476;55.004;73.342;2023-02-24T16:33:49;24.95;;;15.00;;
69736;SDS011;64476;55.004;73.342;2023-02-24T16:36:51;23.20;;;13.80;;
69736;SDS011;64476;55.004;73.342;2023-02-24T16:39:59;20.50;;;11.02;;
69736;SDS011;64476;55.004;73.342;2023-02-24T16:43:00;20.17;;;12.70;;
69736;SDS011;64476;55.004;73.342;2023-02-24T16:46:13;26.95;;;13.95;;
69736;SDS011;64476;55.004;73.342;2023-02-24T16:49:29;25.38;;;13.32;;
69736;SDS011;64476;55.004;73.342;2023-02-24T16:52:30;19.92;;;12.50;;
69736;SDS011;64476;55.004;73.342;2023-02-24T16:55:42;26.60;;;14.13;;
69736;SDS011;64476;55.004;73.342;2023-02-24T16:58:44;23.52;;;12.27;;
69736;SDS011;64476;55.004;73.342;2023-02-24T17:01:58;28.40;;;12.45;;
69736;SDS011;64476;55.004;73.342;2023-02-24T17:04:59;23.08;;;12.25;;
69736;SDS011;64476;55.004;73.342;2023-02-24T17:08:01;18.70;;;11.77;;
69736;SDS011;64476;55.004;73.342;2023-02-24T17:11:03;21.75;;;12.50;;
69736;SDS011;64476;55.004;73.342;2023-02-24T17:14:06;21.00;;;11.68;;
69736;SDS011;64476;55.004;73.342;2023-02-24T17:20:48;22.58;;;13.40;;
69736;SDS011;64476;55.004;73.342;2023-02-24T17:23:55;24.70;;;12.85;;
69736;SDS011;64476;55.004;73.342;2023-02-24T17:26:57;21.15;;;12.13;;
69736;SDS011;64476;55.004;73.342;2023-02-24T17:30:00;22.87;;;11.70;;
69736;SDS011;64476;55.004;73.342;2023-02-24T17:33:02;23.10;;;13.23;;
69736;SDS011;64476;55.004;73.342;2023-02-24T17:36:10;26.40;;;14.57;;
69736;SDS011;64476;55.004;73.342;2023-02-24T17:39:49;26.48;;;13.27;;
69736;SDS011;64476;55.004;73.342;2023-02-24T17:42:56;25.17;;;14.13;;
69736;SDS011;64476;55.004;73.342;2023-02-24T17:46:02;27.08;;;12.75;;
69736;SDS011;64476;55.004;73.342;2023-02-24T17:49:04;20.60;;;12.15;;
69736;SDS011;64476;55.004;73.342;2023-02-24T17:52:16;17.08;;;10.18;;
69736;SDS011;64476;55.004;73.342;2023-02-24T17:55:17;29.35;;;14.23;;
69736;SDS011;64476;55.004;73.342;2023-02-24T17:58:19;27.64;;;12.68;;
69736;SDS011;64476;55.004;73.342;2023-02-24T18:01:21;27.02;;;14.40;;
69736;SDS011;64476;55.004;73.342;2023-02-24T18:04:22;24.90;;;13.15;;
69736;SDS011;64476;55.004;73.342;2023-02-24T18:07:29;23.58;;;11.80;;
69736;SDS011;64476;55.004;73.342;2023-02-24T18:10:36;21.52;;;12.88;;
69736;SDS011;64476;55.004;73.342;2023-02-24T18:13:37;31.13;;;14.45;;
69736;SDS011;64476;55.004;73.342;2023-02-24T18:16:39;31.38;;;14.55;;
69736;SDS011;64476;55.004;73.342;2023-02-24T18:19:46;20.63;;;12.30;;
69736;SDS011;64476;55.004;73.342;2023-02-24T18:23:01;28.10;;;13.15;;
69736;SDS011;64476;55.004;73.342;2023-02-24T18:26:03;24.42;;;13.35;;
69736;SDS011;64476;55.004;73.342;2023-02-24T18:29:07;26.58;;;13.43;;
69736;SDS011;64476;55.004;73.342;2023-02-24T18:32:09;22.35;;;12.05;;
69736;SDS011;64476;55.004;73.342;2023-02-24T18:35:11;22.88;;;12.52;;
69736;SDS011;64476;55.004;73.342;2023-02-24T18:38:17;22.73;;;11.50;;
69736;SDS011;64476;55.004;73.342;2023-02-24T18:41:20;24.05;;;12.90;;
69736;SDS011;64476;55.004;73.342;2023-02-24T18:44:23;20.77;;;12.77;;
69736;SDS011;64476;55.004;73.342;2023-02-24T18:47:31;29.50;;;13.23;;
69736;SDS011;64476;55.004;73.342;2023-02-24T18:54:09;25.50;;;13.20;;
69736;SDS011;64476;55.004;73.342;2023-02-24T18:57:14;20.27;;;11.27;;
69736;SDS011;64476;55.004;73.342;2023-02-24T19:00:18;20.38;;;12.45;;
69736;SDS011;64476;55.004;73.342;2023-02-24T19:03:29;23.50;;;13.90;;
69736;SDS011;64476;55.004;73.342;2023-02-24T19:06:36;25.83;;;12.35;;
69736;SDS011;64476;55.004;73.342;2023-02-24T19:09:38;25.05;;;13.95;;
69736;SDS011;64476;55.004;73.342;2023-02-24T19:12:39;26.00;;;14.30;;
69736;SDS011;64476;55.004;73.342;2023-02-24T19:15:41;19.67;;;12.02;;
69736;SDS011;64476;55.004;73.342;2023-02-24T19:18:44;21.27;;;12.55;;
69736;SDS011;64476;55.004;73.342;2023-02-24T19:21:50;20.58;;;11.30;;
69736;SDS011;64476;55.004;73.342;2023-02-24T19:24:52;28.10;;;13.57;;
69736;SDS011;64476;55.004;73.342;2023-02-24T19:27:53;21.77;;;12.13;;
69736;SDS011;64476;55.004;73.342;2023-02-24T19:30:55;24.05;;;12.10;;
69736;SDS011;64476;55.004;73.342;2023-02-24T19:33:58;23.40;;;12.50;;
69736;SDS011;64476;55.004;73.342;2023-02-24T19:37:11;27.00;;;12.70;;
69736;SDS011;64476;55.004;73.342;2023-02-24T19:40:13;22.60;;;12.63;;
69736;SDS011;64476;55.004;73.342;2023-02-24T19:43:25;20.42;;;12.07;;
69736;SDS011;64476;55.004;73.342;2023-02-24T19:46:31;22.52;;;13.25;;
69736;SDS011;64476;55.004;73.342;2023-02-24T19:49:34;21.75;;;12.38;;
69736;SDS011;64476;55.004;73.342;2023-02-24T19:52:37;21.67;;;12.98;;
69736;SDS011;64476;55.004;73.342;2023-02-24T19:55:39;22.98;;;13.68;;
69736;SDS011;64476;55.004;73.342;2023-02-24T19:58:41;25.63;;;13.30;;
69736;SDS011;64476;55.004;73.342;2023-02-24T20:02:16;21.63;;;13.10;;
69736;SDS011;64476;55.004;73.342;2023-02-24T20:05:20;23.55;;;13.18;;
69736;SDS011;64476;55.004;73.342;2023-02-24T20:08:22;26.53;;;13.37;;
69736;SDS011;64476;55.004;73.342;2023-02-24T20:11:24;27.02;;;14.07;;
69736;SDS011;64476;55.004;73.342;2023-02-24T20:14:28;28.73;;;12.77;;
69736;SDS011;64476;55.004;73.342;2023-02-24T20:17:32;24.77;;;12.68;;
69736;SDS011;64476;55.004;73.342;2023-02-24T20:20:34;24.52;;;12.43;;
69736;SDS011;64476;55.004;73.342;2023-02-24T20:23:36;30.73;;;13.05;;
69736;SDS011;64476;55.004;73.342;2023-02-24T20:26:45;31.05;;;13.15;;
69736;SDS011;64476;55.004;73.342;2023-02-24T20:29:49;20.63;;;10.90;;
69736;SDS011;64476;55.004;73.342;2023-02-24T20:32:59;20.25;;;12.15;;
69736;SDS011;64476;55.004;73.342;2023-02-24T20:36:08;23.70;;;12.77;;
69736;SDS011;64476;55.004;73.342;2023-02-24T20:39:16;27.23;;;12.13;;